Time;durP1;ratioP1;P1;durP2;ratioP2;P2;SDS_P1;SDS_P2;PMS_P1;PMS_P2;Temp;Humidity;BMP_temperature;BMP_pressure;BME280_temperature;BME280_humidity;BME280_pressure;Samples;Min_cycle;Max_cycle;Signal;HPM_P1;HPM_P2
2021/11/20 00:00:32;;;;;;;18.00;13.87;;;7.50;92.20;;;6.36;93.63;99233.19;4967066;28;20557;-69
2021/11/20 00:02:59;;;;;;;18.50;14.03;;;7.50;92.20;;;6.22;93.93;99230.06;4952120;28;20466;-69
2021/11/20 00:05:31;;;;;;;18.73;13.97;;;7.50;92.00;;;6.27;93.87;99236.81;4954613;28;20495;-69
2021/11/20 00:08:00;;;;;;;19.20;14.77;;;7.50;92.40;;;6.26;93.95;99224.38;4968922;28;20999;-68
2021/11/20 00:10:31;;;;;;;18.57;14.07;;;7.50;92.50;;;6.30;93.73;99226.59;4969781;28;20955;-70
2021/11/20 00:12:59;;;;;;;17.27;13.63;;;7.60;92.00;;;6.35;93.29;99228.81;4963954;28;21485;-70
2021/11/20 00:15:30;;;;;;;17.60;14.60;;;7.60;92.00;;;6.33;93.46;99226.28;4970916;28;20465;-69
2021/11/20 00:17:58;;;;;;;15.53;12.50;;;7.60;91.50;;;6.36;93.74;99217.06;4968654;28;20806;-69
2021/11/20 00:20:28;;;;;;;16.20;12.83;;;7.60;92.10;;;6.48;93.26;99220.31;4968664;28;20808;-68
2021/11/20 00:22:57;;;;;;;21.73;15.93;;;7.60;91.90;;;6.26;93.96;99224.38;4966868;28;21401;-69
2021/11/20 00:25:31;;;;;;;18.27;15.30;;;7.60;91.70;;;6.43;93.02;99220.78;4959794;28;20465;-69
2021/11/20 00:28:00;;;;;;;17.77;14.03;;;7.60;91.70;;;6.30;94.27;99221.22;4968567;28;20485;-69
2021/11/20 00:30:40;;;;;;;18.20;13.90;;;7.60;92.00;;;6.19;94.10;99225.03;4969386;28;20493;-68
2021/11/20 00:33:11;;;;;;;19.73;14.23;;;7.60;91.80;;;6.20;94.38;99231.22;4949563;28;20789;-70
2021/11/20 00:35:43;;;;;;;19.37;13.47;;;7.50;92.10;;;6.39;93.34;99224.81;4968155;28;20457;-69
2021/11/20 00:38:13;;;;;;;19.00;14.57;;;7.60;92.20;;;6.22;93.86;99216.66;4970117;28;20466;-69
2021/11/20 00:40:45;;;;;;;17.50;13.97;;;7.60;92.10;;;6.26;93.61;99219.00;4966220;28;20532;-70
2021/11/20 00:43:14;;;;;;;20.10;14.53;;;7.60;92.00;;;6.18;94.04;99217.97;4966745;28;20451;-69
2021/11/20 00:45:42;;;;;;;21.77;15.20;;;7.50;92.00;;;6.43;93.11;99218.09;4970350;28;21171;-70
2021/11/20 00:48:10;;;;;;;20.30;15.20;;;7.60;91.90;;;6.26;93.59;99227.06;4965783;28;20516;-69
2021/11/20 00:50:43;;;;;;;18.67;14.60;;;7.60;91.80;;;6.20;93.84;99215.97;4949974;28;20458;-68
2021/11/20 00:53:10;;;;;;;21.33;14.97;;;7.50;92.10;;;6.31;93.48;99214.03;4965110;28;20489;-68
2021/11/20 00:55:38;;;;;;;19.67;15.27;;;7.60;91.80;;;6.22;93.80;99223.88;4954452;28;20560;-68
2021/11/20 00:58:07;;;;;;;20.30;15.50;;;7.50;92.00;;;6.17;93.80;99221.66;4964561;28;20465;-69
2021/11/20 01:00:40;;;;;;;20.93;15.30;;;7.60;91.60;;;6.27;93.73;99220.69;4965961;28;21182;-67
2021/11/20 01:03:08;;;;;;;20.87;15.97;;;7.50;91.60;;;6.23;93.07;99212.97;4944681;28;20527;-69
2021/11/20 01:05:36;;;;;;;20.10;15.10;;;7.60;91.50;;;6.41;93.00;99219.28;4967391;28;21035;-69
2021/11/20 01:08:05;;;;;;;19.23;14.20;;;7.60;91.50;;;6.36;93.13;99217.06;4967724;28;20458;-70
2021/11/20 01:10:36;;;;;;;19.67;15.47;;;7.60;91.60;;;6.37;93.27;99213.38;4968992;28;20474;-68
2021/11/20 01:13:06;;;;;;;20.07;15.60;;;7.60;91.70;;;6.57;92.17;99211.31;4964991;28;21003;-69
2021/11/20 01:15:46;;;;;;;20.83;16.40;;;7.70;91.40;;;6.41;92.02;99206.69;4970566;28;20524;-69
2021/11/20 01:18:14;;;;;;;20.13;15.17;;;7.70;91.00;;;6.36;92.61;99188.38;4969483;28;20461;-69
2021/11/20 01:20:43;;;;;;;22.87;16.23;;;7.60;91.60;;;6.43;92.36;99198.50;4967247;28;20523;-70
2021/11/20 01:23:10;;;;;;;21.63;15.27;;;7.70;90.90;;;6.86;90.93;99206.56;4967212;28;20472;-69
2021/11/20 01:25:37;;;;;;;17.83;14.70;;;7.90;90.60;;;6.60;91.71;99202.94;4959466;28;20498;-69
2021/11/20 01:28:07;;;;;;;20.50;15.17;;;7.90;90.30;;;6.52;92.24;99200.19;4963897;28;20548;-68
2021/11/20 01:30:35;;;;;;;21.50;15.97;;;7.80;90.70;;;6.51;92.39;99204.75;4968038;28;20497;-69
2021/11/20 01:33:02;;;;;;;21.77;16.60;;;7.80;90.80;;;6.56;92.38;99203.41;4966221;28;20465;-68
2021/11/20 01:35:29;;;;;;;21.10;15.20;;;7.80;90.80;;;6.53;92.40;99204.59;4969270;28;21041;-68
2021/11/20 01:37:57;;;;;;;23.00;16.80;;;7.80;91.00;;;6.64;91.73;99203.47;4952760;28;20977;-69
2021/11/20 01:40:28;;;;;;;27.30;17.60;;;7.80;90.70;;;6.59;91.87;99203.09;4969399;28;20492;-67
2021/11/20 01:42:56;;;;;;;21.50;16.00;;;7.80;90.90;;;6.56;91.83;99206.94;4969733;28;20457;-68
2021/11/20 01:45:28;;;;;;;22.50;16.10;;;7.80;90.50;;;6.60;91.80;99200.25;4949731;28;21112;-69
2021/11/20 01:47:59;;;;;;;24.03;16.40;;;7.90;90.60;;;6.54;92.81;99192.84;4966241;28;20868;-68
2021/11/20 01:50:32;;;;;;;22.47;15.97;;;7.80;90.80;;;6.67;91.14;99195.06;4967916;28;20473;-69
2021/11/20 01:53:06;;;;;;;22.77;15.33;;;7.90;90.30;;;6.55;92.44;99193.69;4963677;28;20446;-68
2021/11/20 01:55:41;;;;;;;28.10;18.10;;;7.80;91.10;;;6.59;92.36;99186.97;4969947;28;20462;-69
2021/11/20 01:58:24;;;;;;;26.00;18.73;;;7.80;91.10;;;6.55;92.21;99182.94;4960708;28;20516;-69
2021/11/20 02:00:58;;;;;;;20.77;16.27;;;7.80;90.80;;;6.55;91.42;99174.88;4956927;28;20540;-68
2021/11/20 02:03:36;;;;;;;22.57;15.80;;;7.80;90.50;;;6.64;91.40;99180.13;4964947;28;20564;-67
2021/11/20 02:06:10;;;;;;;25.33;17.17;;;7.80;90.60;;;6.69;90.81;99170.75;4967957;28;20457;-67
2021/11/20 02:08:46;;;;;;;22.80;16.67;;;7.90;89.80;;;6.66;91.01;99172.72;4965174;28;20460;-68
2021/11/20 02:11:19;;;;;;;21.17;16.43;;;7.90;90.10;;;6.63;91.30;99162.31;4965289;28;20457;-68
2021/11/20 02:13:47;;;;;;;22.70;16.50;;;7.90;90.20;;;6.55;91.83;99169.50;4963893;28;21057;-69
2021/11/20 02:16:20;;;;;;;22.27;16.87;;;7.90;89.90;;;6.51;92.45;99156.41;4970331;28;20466;-69
2021/11/20 02:18:56;;;;;;;25.03;17.60;;;7.90;90.40;;;6.51;92.11;99164.47;4944724;28;20457;-69
2021/11/20 02:21:29;;;;;;;24.20;17.50;;;7.80;90.50;;;6.44;92.51;99160.72;4967273;28;20565;-68
2021/11/20 02:23:56;;;;;;;24.67;18.07;;;7.70;91.00;;;6.58;92.12;99169.19;4960192;28;20453;-68
2021/11/20 02:26:22;;;;;;;24.53;16.60;;;7.90;90.70;;;6.51;92.03;99166.28;4965414;28;20446;-68
2021/11/20 02:28:52;;;;;;;24.43;17.30;;;7.80;90.70;;;6.52;92.63;99170.66;4966933;28;21324;-68
2021/11/20 02:31:22;;;;;;;25.10;18.73;;;7.70;91.10;;;6.59;91.30;99157.44;4963155;28;20593;-68
2021/11/20 02:33:51;;;;;;;23.70;17.90;;;7.80;90.30;;;6.60;91.36;99162.66;4959464;28;20508;-69
2021/11/20 02:36:21;;;;;;;23.67;17.40;;;7.80;90.30;;;6.41;91.32;99142.25;4972866;28;20955;-68
2021/11/20 02:38:58;;;;;;;26.07;18.17;;;7.80;90.00;;;6.64;90.66;99160.50;4951168;28;20470;-70
2021/11/20 02:41:27;;;;;;;23.80;16.37;;;7.80;90.00;;;6.74;90.06;99158.50;4950805;28;20472;-70
2021/11/20 02:43:57;;;;;;;21.77;16.10;;;7.90;89.10;;;6.61;90.44;99153.59;4964473;28;21131;-70
2021/11/20 02:46:30;;;;;;;23.83;16.90;;;7.80;89.40;;;6.58;90.69;99151.25;4963283;28;20474;-69
2021/11/20 02:48:57;;;;;;;23.63;17.07;;;7.90;89.50;;;6.64;90.74;99155.13;4962032;28;20532;-70
2021/11/20 02:51:27;;;;;;;24.67;18.37;;;7.90;89.50;;;6.63;90.44;99140.84;4960493;28;20457;-69
2021/11/20 02:53:59;;;;;;;23.07;16.43;;;8.00;89.10;;;6.62;91.30;99146.38;4965037;28;20535;-70
2021/11/20 02:56:32;;;;;;;23.13;16.60;;;7.90;89.60;;;6.61;91.52;99142.03;4955951;28;20524;-69
2021/11/20 02:58:59;;;;;;;20.80;15.47;;;7.90;90.40;;;6.57;92.05;99129.91;4948080;28;20498;-69
2021/11/20 03:01:33;;;;;;;23.60;17.00;;;7.80;90.60;;;6.40;92.01;99134.38;4967880;28;20493;-70
2021/11/20 03:04:00;;;;;;;22.17;17.03;;;7.80;90.00;;;6.49;91.48;99122.66;4967266;28;20446;-69
2021/11/20 03:06:29;;;;;;;22.93;16.07;;;7.80;90.50;;;6.63;92.05;99130.09;4965927;28;20816;-69
2021/11/20 03:08:56;;;;;;;25.17;17.13;;;7.80;90.80;;;6.41;93.00;99118.09;4965572;28;21078;-70
2021/11/20 03:11:23;;;;;;;21.90;15.67;;;7.70;91.40;;;6.53;92.76;99132.09;4962836;28;21101;-70
2021/11/20 03:13:54;;;;;;;24.47;18.60;;;7.70;91.70;;;6.48;92.69;99119.16;4963022;28;20579;-69
2021/11/20 03:16:22;;;;;;;25.53;19.00;;;7.70;91.50;;;6.41;92.14;99093.13;4949308;28;20481;-70
2021/11/20 03:18:50;;;;;;;23.90;16.97;;;7.80;91.10;;;6.59;92.11;99111.78;4966704;28;20501;-69
2021/11/20 03:21:19;;;;;;;23.07;16.83;;;7.70;91.50;;;6.61;92.18;99120.53;4965931;28;21133;-70
2021/11/20 03:23:52;;;;;;;26.17;18.00;;;7.70;91.30;;;6.55;92.22;99116.66;4950686;28;20478;-70
2021/11/20 03:26:20;;;;;;;25.17;18.63;;;7.80;91.40;;;6.54;92.46;99111.44;4968066;28;20473;-69
2021/11/20 03:28:47;;;;;;;24.57;17.77;;;7.80;91.20;;;6.37;93.76;99108.69;4968588;28;21017;-69
2021/11/20 03:31:14;;;;;;;24.87;18.87;;;7.70;91.40;;;6.47;92.52;99098.69;4966546;28;20470;-68
2021/11/20 03:33:42;;;;;;;26.50;18.77;;;7.70;91.30;;;6.48;92.22;99105.72;4968743;28;20478;-69
2021/11/20 03:36:10;;;;;;;25.30;17.87;;;7.70;91.00;;;6.66;90.94;99107.44;4949596;28;20458;-68
2021/11/20 03:38:37;;;;;;;25.53;17.90;;;7.80;90.50;;;6.39;91.59;99087.91;4964532;28;20462;-69
2021/11/20 03:41:06;;;;;;;26.70;18.70;;;7.80;90.30;;;6.82;89.44;99103.13;4969274;28;20481;-69
2021/11/20 03:43:35;;;;;;;27.07;18.57;;;7.90;89.10;;;6.74;89.33;99096.72;4947303;28;20490;-68
2021/11/20 03:46:02;;;;;;;24.40;18.30;;;8.00;88.10;;;6.67;90.45;99106.44;4964448;28;20853;-69
2021/11/20 03:48:29;;;;;;;25.80;18.20;;;7.90;88.80;;;6.50;91.35;99092.97;4951962;28;20869;-69
2021/11/20 03:50:56;;;;;;;30.30;19.30;;;7.80;89.80;;;6.64;90.09;99096.03;4965942;28;20528;-69
2021/11/20 03:53:27;;;;;;;22.73;16.80;;;7.80;89.40;;;6.41;91.39;99085.88;4967024;28;20473;-70
2021/11/20 03:55:54;;;;;;;27.93;18.73;;;7.70;89.90;;;6.30;91.47;99080.84;4968819;28;20446;-69
2021/11/20 03:58:23;;;;;;;30.63;19.43;;;7.70;90.00;;;6.19;92.70;99085.47;4967954;28;20469;-70
2021/11/20 04:00:55;;;;;;;25.93;16.77;;;7.60;90.60;;;6.47;91.75;99097.81;4951787;28;20536;-69
2021/11/20 04:03:22;;;;;;;29.70;18.60;;;7.60;90.90;;;6.51;91.26;99093.78;4971668;28;20520;-70
2021/11/20 04:05:51;;;;;;;24.80;18.07;;;7.70;90.70;;;6.36;91.77;99091.72;4964825;28;20477;-69
2021/11/20 04:08:19;;;;;;;27.40;18.10;;;7.60;90.80;;;6.55;91.23;99088.94;4965565;28;20471;-69
2021/11/20 04:10:51;;;;;;;26.93;18.97;;;7.70;90.70;;;6.44;91.99;99090.09;4967140;28;21059;-69
2021/11/20 04:13:19;;;;;;;28.13;20.17;;;7.70;90.70;;;6.25;93.18;99084.00;4964033;28;20477;-69
2021/11/20 04:15:48;;;;;;;28.93;17.67;;;7.60;90.80;;;6.28;93.03;99090.84;4972222;28;20975;-69
2021/11/20 04:18:15;;;;;;;30.73;20.07;;;7.60;91.10;;;6.40;92.61;99088.75;4955769;28;20476;-70
2021/11/20 04:20:42;;;;;;;29.67;19.47;;;7.70;91.10;;;6.40;92.54;99092.25;4967928;28;20469;-70
2021/11/20 04:23:11;;;;;;;26.67;19.03;;;7.70;90.90;;;6.32;92.82;99090.38;4966072;28;20508;-69
2021/11/20 04:25:38;;;;;;;29.33;19.63;;;7.60;91.10;;;6.32;93.27;99084.19;4967194;28;20474;-69
2021/11/20 04:28:07;;;;;;;27.10;19.07;;;7.60;91.70;;;6.35;93.14;99082.00;4966619;28;20844;-68
2021/11/20 04:30:39;;;;;;;31.47;19.97;;;7.60;91.60;;;6.35;92.22;99078.50;4967587;28;20500;-67
2021/11/20 04:33:07;;;;;;;29.47;19.53;;;7.60;91.10;;;6.51;92.11;99075.00;4970919;28;20989;-68
2021/11/20 04:35:35;;;;;;;26.97;18.37;;;7.70;90.90;;;6.42;92.14;99073.31;4966644;28;20869;-68
2021/11/20 04:38:03;;;;;;;26.73;18.87;;;7.70;90.50;;;6.41;92.03;99072.47;4969679;28;20464;-68
2021/11/20 04:40:30;;;;;;;27.27;19.10;;;7.80;90.50;;;6.42;92.01;99066.09;4969956;28;20462;-69
2021/11/20 04:42:57;;;;;;;27.23;19.07;;;7.80;90.40;;;6.38;92.34;99068.28;4970191;28;20557;-69
2021/11/20 04:45:28;;;;;;;27.20;19.30;;;7.70;90.40;;;6.23;92.98;99073.41;4969015;28;20470;-68
2021/11/20 04:47:55;;;;;;;30.43;17.93;;;7.60;90.80;;;6.26;92.49;99068.72;4954195;28;20535;-68
2021/11/20 04:50:24;;;;;;;28.10;19.33;;;7.60;90.70;;;6.12;92.86;99067.50;4969576;28;20461;-68
2021/11/20 04:52:52;;;;;;;30.27;18.77;;;7.50;90.60;;;6.35;92.17;99063.22;4965795;28;20453;-68
2021/11/20 04:55:21;;;;;;;27.03;18.93;;;7.50;90.80;;;6.18;92.83;99061.47;4953253;28;20454;-68
2021/11/20 04:57:48;;;;;;;29.27;18.30;;;7.50;90.70;;;6.38;91.72;99065.59;4962381;28;20474;-68
2021/11/20 05:00:19;;;;;;;28.23;18.43;;;7.50;90.80;;;6.29;91.44;99057.66;4965626;28;20489;-67
2021/11/20 05:02:48;;;;;;;26.03;18.00;;;7.60;90.30;;;6.22;92.32;99052.94;4962943;28;20553;-67
2021/11/20 05:05:16;;;;;;;26.60;18.50;;;7.50;90.40;;;6.20;92.68;99054.94;4968984;28;20458;-67
2021/11/20 05:07:44;;;;;;;27.70;19.20;;;7.50;90.90;;;6.20;92.16;99051.41;4965899;28;21015;-68
2021/11/20 05:10:13;;;;;;;26.83;17.77;;;7.50;90.60;;;6.09;92.30;99063.28;4966424;28;20517;-68
2021/11/20 05:12:41;;;;;;;27.70;18.50;;;7.50;90.60;;;6.23;92.33;99054.63;4958397;28;20499;-68
2021/11/20 05:15:12;;;;;;;29.03;19.27;;;7.50;91.20;;;6.20;92.40;99065.69;4963617;28;20461;-68
2021/11/20 05:17:40;;;;;;;29.77;18.40;;;7.40;91.20;;;6.40;91.13;99060.03;4966530;28;20461;-68
2021/11/20 05:20:10;;;;;;;29.70;18.30;;;7.50;90.80;;;6.42;90.77;99060.72;4968963;28;20472;-68
2021/11/20 05:22:38;;;;;;;28.20;18.50;;;7.60;90.20;;;6.31;92.03;99061.88;4953876;28;20479;-68
2021/11/20 05:25:08;;;;;;;24.00;17.13;;;7.50;90.80;;;6.33;91.87;99057.16;4967860;28;20541;-68
2021/11/20 05:27:36;;;;;;;25.27;17.57;;;7.60;90.80;;;6.61;90.45;99053.41;4967993;28;20472;-68
2021/11/20 05:30:07;;;;;;;28.07;19.17;;;7.70;89.80;;;6.36;91.70;99058.69;4946019;28;21032;-68
2021/11/20 05:32:35;;;;;;;27.00;17.87;;;7.70;90.30;;;6.41;91.68;99061.72;4967551;28;21205;-68
2021/11/20 05:35:03;;;;;;;29.23;18.23;;;7.60;90.60;;;6.49;91.21;99059.06;4956134;28;20540;-68
2021/11/20 05:37:32;;;;;;;26.30;17.73;;;7.70;90.00;;;6.35;91.91;99063.22;4966725;28;20477;-68
2021/11/20 05:39:59;;;;;;;25.47;17.97;;;7.70;90.30;;;6.33;92.84;99057.16;4952738;28;20757;-69
2021/11/20 05:42:26;;;;;;;27.43;17.63;;;7.60;91.00;;;6.35;92.63;99068.56;4970614;28;21271;-68
2021/11/20 05:44:53;;;;;;;27.87;17.10;;;7.70;91.00;;;6.44;92.29;99065.94;4967701;28;20956;-69
2021/11/20 05:47:20;;;;;;;27.00;18.80;;;7.70;91.00;;;6.44;91.64;99050.66;4964515;28;20462;-67
2021/11/20 05:49:47;;;;;;;29.50;18.40;;;7.80;90.50;;;6.31;92.79;99053.81;4968387;28;20465;-68
2021/11/20 05:52:17;;;;;;;28.43;18.80;;;7.70;90.70;;;6.47;92.81;99055.72;4970096;28;20464;-68
2021/11/20 05:54:47;;;;;;;27.87;18.57;;;7.60;91.40;;;6.50;92.15;99050.00;4966306;28;20457;-68
2021/11/20 05:57:14;;;;;;;27.47;17.80;;;7.70;91.10;;;6.29;92.90;99058.50;4964311;28;20524;-68
2021/11/20 05:59:41;;;;;;;29.97;19.17;;;7.60;91.30;;;6.03;93.69;99054.03;4952205;28;20462;-68
2021/11/20 06:02:08;;;;;;;34.40;21.90;;;7.40;91.80;;;6.12;93.48;99041.47;4945932;28;20515;-67
2021/11/20 06:04:36;;;;;;;28.77;18.53;;;7.50;92.00;;;6.14;93.93;99034.13;4965594;28;20458;-68
2021/11/20 06:07:05;;;;;;;28.47;18.27;;;7.40;92.10;;;6.10;93.59;99048.84;4962509;28;20461;-68
2021/11/20 06:09:32;;;;;;;25.60;16.90;;;7.40;92.00;;;6.27;93.44;99048.91;4950091;28;20520;-68
2021/11/20 06:12:00;;;;;;;29.03;17.67;;;7.50;92.30;;;6.21;93.71;99059.31;4967375;28;20453;-67
2021/11/20 06:14:27;;;;;;;27.03;18.80;;;7.50;91.90;;;6.18;93.66;99056.09;4965913;28;20559;-68
2021/11/20 06:16:55;;;;;;;27.27;18.23;;;7.40;92.20;;;6.20;93.28;99054.09;4971867;28;20456;-67
2021/11/20 06:19:22;;;;;;;30.50;18.00;;;7.40;92.10;;;6.18;93.74;99050.72;4953393;28;20472;-68
2021/11/20 06:21:49;;;;;;;28.20;19.10;;;7.40;92.00;;;6.11;93.56;99053.22;4967859;28;20473;-67
2021/11/20 06:24:17;;;;;;;29.80;18.90;;;7.30;92.40;;;6.14;94.07;99049.38;4957308;28;21069;-67
2021/11/20 06:26:46;;;;;;;29.10;19.57;;;7.40;92.40;;;6.19;93.58;99064.00;4968722;28;20879;-68
2021/11/20 06:29:16;;;;;;;27.03;18.00;;;7.40;92.20;;;6.03;93.61;99055.88;4974015;28;20539;-67
2021/11/20 06:31:47;;;;;;;27.77;17.20;;;7.30;92.10;;;6.12;94.38;99062.94;4974356;28;20453;-67
2021/11/20 06:34:14;;;;;;;27.13;18.90;;;7.30;92.80;;;6.19;93.28;99064.00;4971858;28;20480;-68
2021/11/20 06:36:41;;;;;;;26.40;17.57;;;7.40;92.30;;;6.20;93.35;99057.63;4975213;28;20547;-69
2021/11/20 06:39:09;;;;;;;26.87;18.00;;;7.40;92.10;;;6.07;94.55;99062.59;4956852;28;20469;-69
2021/11/20 06:41:36;;;;;;;27.10;17.93;;;7.40;92.40;;;6.22;94.03;99062.84;4972286;28;21062;-69
2021/11/20 06:44:04;;;;;;;27.67;18.33;;;7.40;92.60;;;6.22;93.74;99058.31;4968571;28;20465;-68
2021/11/20 06:46:33;;;;;;;29.00;18.17;;;7.40;92.40;;;6.24;92.71;99039.38;4972991;28;20457;-69
2021/11/20 06:49:01;;;;;;;27.50;17.10;;;7.50;91.80;;;6.28;93.60;99056.81;4977095;28;20456;-67
2021/11/20 06:51:28;;;;;;;25.03;16.73;;;7.50;92.60;;;6.44;93.99;99050.66;4964847;28;20972;-69
2021/11/20 06:53:55;;;;;;;26.83;17.23;;;7.60;92.90;;;6.45;92.29;99062.25;4968386;28;20477;-69
2021/11/20 06:56:27;;;;;;;27.27;18.50;;;7.70;91.50;;;6.72;91.61;99063.00;4970899;28;20968;-68
2021/11/20 06:59:16;;;;;;;25.43;17.70;;;7.80;91.10;;;6.58;91.94;99057.25;4969081;28;20545;-68
2021/11/20 07:01:46;;;;;;;30.93;22.07;;;7.80;91.00;;;6.41;92.22;99047.47;4965465;28;21071;-68
2021/11/20 07:04:17;;;;;;;27.40;17.77;;;7.70;90.50;;;6.40;91.81;99049.31;4967355;28;20465;-68
2021/11/20 07:06:48;;;;;;;28.00;19.10;;;7.70;90.50;;;6.35;92.25;99051.66;4950319;28;20492;-69
2021/11/20 07:09:17;;;;;;;27.67;17.07;;;7.70;90.50;;;6.51;93.01;99050.84;4968773;28;20560;-76
2021/11/20 07:11:45;;;;;;;23.67;15.97;;;7.60;92.00;;;6.50;91.85;99043.78;4949777;28;20473;-71
2021/11/20 07:14:12;;;;;;;25.20;16.87;;;7.70;90.80;;;6.44;91.81;99044.47;4950909;28;20469;-70
2021/11/20 07:16:41;;;;;;;26.63;17.20;;;7.80;90.30;;;6.52;90.98;99050.69;4963045;28;20496;-69
2021/11/20 07:19:10;;;;;;;25.63;16.90;;;7.80;89.80;;;6.50;92.21;99044.66;4970674;28;21162;-71
2021/11/20 07:21:37;;;;;;;27.90;18.10;;;7.70;90.80;;;6.58;91.61;99051.88;4965663;28;21086;-70
2021/11/20 07:24:09;;;;;;;28.27;17.90;;;7.80;90.30;;;6.31;92.42;99039.56;4969825;28;20512;-72
2021/11/20 07:26:36;;;;;;;25.33;17.03;;;7.70;90.10;;;6.27;92.50;99052.47;4962014;28;20441;-70
2021/11/20 07:29:06;;;;;;;21.60;16.33;;;7.70;90.40;;;6.65;92.11;99035.94;4968494;28;20465;-70
2021/11/20 07:31:33;;;;;;;24.47;16.80;;;7.80;91.10;;;6.35;91.57;99038.22;4968774;28;20470;-70
2021/11/20 07:34:00;;;;;;;25.10;17.90;;;7.70;90.30;;;6.48;91.79;99043.13;4967283;28;20524;-71
2021/11/20 07:36:29;;;;;;;26.73;17.53;;;7.70;90.30;;;6.49;91.73;99042.97;4964114;28;20561;-71
2021/11/20 07:39:00;;;;;;;25.90;16.90;;;7.80;90.20;;;6.37;92.23;99038.91;4967498;28;20457;-70
2021/11/20 07:41:28;;;;;;;23.50;16.70;;;7.80;90.20;;;6.70;91.73;99044.34;4949560;28;20915;-70
2021/11/20 07:43:56;;;;;;;21.50;16.13;;;7.80;90.60;;;6.97;89.32;99045.06;4960879;28;20477;-69
2021/11/20 07:46:24;;;;;;;28.37;17.70;;;8.00;88.60;;;6.50;90.84;99020.47;4961671;28;20466;-70
2021/11/20 07:48:51;;;;;;;26.50;17.07;;;7.90;88.90;;;6.60;91.09;99032.94;4963469;28;20458;-71
2021/11/20 07:51:20;;;;;;;24.00;16.90;;;7.90;89.10;;;6.59;91.08;99036.59;4964204;28;20473;-71
2021/11/20 07:53:49;;;;;;;23.37;16.90;;;7.90;89.40;;;6.63;90.67;99033.41;4952443;28;20554;-71
2021/11/20 07:56:17;;;;;;;27.10;18.20;;;7.90;88.50;;;6.73;90.34;99032.44;4957895;28;20587;-70
2021/11/20 07:58:45;;;;;;;24.97;17.30;;;8.00;88.80;;;6.69;90.13;99031.91;4959263;28;20482;-74
2021/11/20 08:01:14;;;;;;;23.20;16.07;;;8.00;88.20;;;6.80;89.83;99034.28;4948497;28;20486;-71
2021/11/20 08:03:41;;;;;;;21.80;15.53;;;8.00;88.10;;;6.72;90.51;99034.28;4948484;28;20552;-71
2021/11/20 08:06:09;;;;;;;26.50;16.77;;;8.00;88.80;;;6.99;89.55;99024.22;4965157;28;20544;-71
2021/11/20 08:08:36;;;;;;;23.10;16.37;;;8.10;88.60;;;6.95;88.67;99034.47;4963670;28;22867;-71
2021/11/20 08:11:06;;;;;;;24.30;15.73;;;8.20;86.80;;;6.70;90.13;99033.59;4966652;28;20847;-69
2021/11/20 08:13:35;;;;;;;24.30;16.37;;;8.10;87.50;;;6.88;89.72;99029.91;4965035;28;20937;-70
2021/11/20 08:16:02;;;;;;;22.37;16.73;;;8.10;88.20;;;6.97;89.22;99033.44;4964036;28;20473;-70
2021/11/20 08:18:30;;;;;;;25.70;17.43;;;8.10;87.60;;;6.94;89.43;99023.91;4968136;28;20457;-70
2021/11/20 08:20:58;;;;;;;26.33;17.07;;;8.10;88.00;;;7.09;88.51;99021.38;4967849;28;21285;-69
2021/11/20 08:23:26;;;;;;;26.37;18.37;;;8.20;87.30;;;6.85;89.11;99019.50;4966229;28;20477;-70
2021/11/20 08:25:53;;;;;;;25.30;17.60;;;8.10;87.00;;;6.89;89.27;99018.16;4966031;28;20470;-69
2021/11/20 08:28:24;;;;;;;25.70;18.67;;;8.20;87.20;;;6.92;88.87;99012.47;4965970;28;20564;-70
2021/11/20 08:30:51;;;;;;;24.93;16.80;;;8.20;87.00;;;7.03;88.81;99017.50;4959417;28;20532;-70
2021/11/20 08:33:19;;;;;;;23.80;16.87;;;8.20;86.70;;;7.06;88.50;99010.97;4959804;28;20563;-68
2021/11/20 08:35:46;;;;;;;22.37;16.37;;;8.30;86.60;;;7.20;87.86;99012.13;4961743;28;20497;-69
2021/11/20 08:38:15;;;;;;;23.73;17.33;;;8.40;86.40;;;7.20;87.33;99012.13;4968509;28;20466;-70
2021/11/20 08:40:47;;;;;;;26.00;18.00;;;8.40;85.50;;;7.19;87.25;99003.22;4964919;28;20458;-69
2021/11/20 08:43:15;;;;;;;23.13;17.17;;;8.50;85.20;;;7.05;87.96;99001.22;4968181;28;20509;-69
2021/11/20 08:45:50;;;;;;;24.40;17.97;;;8.40;85.30;;;7.20;87.63;99009.44;4962114;28;20508;-70
2021/11/20 08:48:18;;;;;;;26.87;17.10;;;8.50;85.10;;;7.40;86.68;99006.41;4965349;28;20452;-70
2021/11/20 08:50:49;;;;;;;27.00;18.23;;;8.60;84.80;;;7.42;86.47;99004.38;4963830;28;20497;-69
2021/11/20 08:53:16;;;;;;;21.33;16.40;;;8.60;84.40;;;7.31;87.28;98998.34;4963266;28;20537;-69
2021/11/20 08:55:44;;;;;;;26.90;17.10;;;8.50;84.90;;;7.07;88.18;99002.75;4942422;28;20523;-69
2021/11/20 08:58:11;;;;;;;25.23;18.50;;;8.40;85.30;;;7.09;87.82;98998.03;4962244;28;20453;-70
2021/11/20 09:00:46;;;;;;;21.00;16.13;;;8.40;85.10;;;7.15;87.19;98998.34;4964380;28;21282;-69
2021/11/20 09:03:18;;;;;;;22.33;16.30;;;8.40;85.10;;;7.36;86.66;98985.25;4961155;28;20477;-70
2021/11/20 09:05:52;;;;;;;23.67;17.17;;;8.50;85.20;;;7.46;86.22;98987.75;4961679;28;20493;-72
2021/11/20 09:08:31;;;;;;;23.23;17.07;;;8.70;84.20;;;7.59;85.57;98984.50;4960932;28;20466;-69
2021/11/20 09:11:05;;;;;;;22.77;16.63;;;8.80;83.80;;;7.58;84.91;98993.59;4965046;28;20957;-67
2021/11/20 09:13:39;;;;;;;24.33;16.90;;;8.90;83.20;;;7.48;85.41;98992.94;4962030;28;20815;-67
2021/11/20 09:16:13;;;;;;;25.37;18.53;;;8.80;83.20;;;7.52;86.03;98986.22;4963362;28;20508;-67
2021/11/20 09:18:41;;;;;;;25.10;17.73;;;8.80;83.80;;;7.51;86.22;98988.06;4963169;28;20473;-66
2021/11/20 09:21:12;;;;;;;26.30;18.07;;;8.70;83.70;;;7.44;86.31;98991.59;4964224;28;20461;-67
2021/11/20 09:23:40;;;;;;;22.47;17.30;;;8.70;83.60;;;7.51;85.93;98984.53;4964080;28;20475;-67
2021/11/20 09:26:08;;;;;;;23.47;16.83;;;8.70;83.50;;;7.48;85.86;98992.94;4964125;28;20459;-67
2021/11/20 09:28:36;;;;;;;26.00;18.80;;;8.80;83.00;;;7.83;83.97;98980.06;4961379;28;20454;-66
2021/11/20 09:31:08;;;;;;;23.57;18.10;;;9.00;82.70;;;7.98;83.15;98982.84;4962408;28;20572;-67
2021/11/20 09:33:35;;;;;;;20.30;15.43;;;9.10;82.00;;;7.86;83.79;98978.84;4961693;28;20462;-67
2021/11/20 09:36:03;;;;;;;24.47;18.53;;;9.10;81.90;;;7.72;84.92;98980.44;4959441;28;21271;-68
2021/11/20 09:38:31;;;;;;;21.30;17.60;;;9.00;82.30;;;7.99;83.62;98972.94;4962427;28;21232;-68
2021/11/20 09:41:02;;;;;;;22.97;17.47;;;9.00;82.40;;;8.29;82.35;98965.03;4964563;28;20465;-69
2021/11/20 09:43:33;;;;;;;22.40;17.30;;;9.20;81.70;;;8.02;82.66;98965.31;4967437;28;20473;-69
2021/11/20 09:46:20;;;;;;;24.00;18.00;;;9.30;81.30;;;8.10;82.88;98963.63;4963630;28;20462;-69
2021/11/20 09:48:53;;;;;;;25.13;17.03;;;9.30;81.30;;;8.05;82.36;98956.06;4968982;28;20793;-68
2021/11/20 09:51:26;;;;;;;23.77;18.97;;;9.30;81.00;;;7.89;83.43;98962.38;4948915;28;20468;-68
2021/11/20 09:53:55;;;;;;;24.80;17.40;;;9.20;81.10;;;8.03;83.50;98958.09;4965849;28;20461;-69
2021/11/20 09:56:29;;;;;;;23.23;17.30;;;9.20;81.40;;;8.11;82.68;98952.66;4966424;28;20469;-70
2021/11/20 09:59:02;;;;;;;22.13;17.53;;;9.30;81.20;;;8.13;82.10;98953.34;4946316;28;20553;-69
2021/11/20 10:01:41;;;;;;;26.67;17.90;;;9.40;80.60;;;8.41;81.01;98938.53;4959793;28;20577;-68
2021/11/20 10:04:48;;;;;;;24.57;17.67;;;9.50;80.60;;;8.11;82.70;98938.38;4964851;28;20485;-69
2021/11/20 10:07:24;;;;;;;23.53;18.30;;;9.40;80.20;;;8.22;81.67;98936.13;4956549;28;20468;-68
2021/11/20 10:09:55;;;;;;;20.97;16.73;;;9.40;80.20;;;8.49;81.30;98936.63;4965750;28;20509;-69
2021/11/20 10:12:33;;;;;;;20.60;16.70;;;9.60;79.90;;;8.42;79.84;98914.13;4962129;28;20472;-68
2021/11/20 10:15:15;;;;;;;26.03;17.20;;;9.60;79.20;;;8.75;78.77;98929.22;4965451;28;21003;-68
2021/11/20 10:17:47;;;;;;;25.43;17.80;;;9.90;78.60;;;8.38;80.12;98918.19;4960567;28;20981;-68
2021/11/20 10:20:42;;;;;;;22.70;18.37;;;9.80;78.50;;;8.06;82.02;98914.69;4963569;28;20833;-72
2021/11/20 10:23:46;;;;;;;25.60;18.10;;;9.50;78.70;;;8.24;81.37;98906.34;4935216;28;20481;-70
2021/11/20 10:26:46;;;;;;;23.90;18.00;;;9.60;79.10;;;8.38;80.92;98906.59;4958717;28;20612;-76
2021/11/20 10:29:53;;;;;;;22.40;17.03;;;9.50;79.20;;;8.28;82.04;98912.22;4967523;28;20457;-72
2021/11/20 10:32:33;;;;;;;25.10;18.93;;;9.50;79.20;;;8.07;82.51;98905.59;4945532;28;20449;-73